Terminal Aerodrome Forecast
Issued by NWS Lake Charles, LA

Home | Current Version | Previous Version | Text Only | Print | Product List | Glossary On
Versions: 1 2 3 4 5 6 7 8 9 10 11 12 13 14 15 16
000
FTUS44 KLCH 261140
TAFAEX
TAF
KAEX 261140Z 2612/2712 00000KT 3SM BR BKN015
      TEMPO 2612/2614 2SM BR BKN008
     FM261400 15005KT P6SM BKN015
     FM261600 17010KT P6SM BKN025
     FM270000 16008KT P6SM SKC
     FM270500 16008KT 4SM BR OVC008=

USA.gov is the U.S. government's official web portal to all federal, state and local government web resources and services.